Terminal Aerodrome Forecast
Issued by NWS

Home | Current Version | Previous Version | Text Only | Print | Product List | Glossary On
Versions: 1 2 3 4 5 6 7 8 9 10 11 12 13
000
FTUS43 KLSX 041120
TAFCPS
TAF
KCPS 041120Z 0412/0512 VRB03KT P6SM SCT050 BKN120
     FM041900 VRB04KT P6SM VCTS SCT040CB BKN250
     FM050000 12005KT P6SM SCT070 BKN250
     FM050500 10005KT P6SM VCTS BKN040CB=

USA.gov is the U.S. government's official web portal to all federal, state and local government web resources and services.